sensor_id;sensor_type;location;lat;lon;timestamp;P1;durP1;ratioP1;P2;durP2;ratioP2
1370;SDS011;14306;49.942;11.570;2023-03-03T00:00:46;36.55;;;16.90;;
1370;SDS011;14306;49.942;11.570;2023-03-03T00:03:15;31.95;;;15.32;;
1370;SDS011;14306;49.942;11.570;2023-03-03T00:05:45;36.45;;;15.77;;
1370;SDS011;14306;49.942;11.570;2023-03-03T00:08:17;30.92;;;15.38;;
1370;SDS011;14306;49.942;11.570;2023-03-03T00:10:46;34.03;;;17.60;;
1370;SDS011;14306;49.942;11.570;2023-03-03T00:13:15;31.33;;;16.13;;
1370;SDS011;14306;49.942;11.570;2023-03-03T00:15:45;42.58;;;17.05;;
1370;SDS011;14306;49.942;11.570;2023-03-03T00:18:20;32.25;;;15.57;;
1370;SDS011;14306;49.942;11.570;2023-03-03T00:20:53;30.20;;;15.38;;
1370;SDS011;14306;49.942;11.570;2023-03-03T00:23:27;35.70;;;17.65;;
1370;SDS011;14306;49.942;11.570;2023-03-03T00:25:58;31.38;;;16.73;;
1370;SDS011;14306;49.942;11.570;2023-03-03T00:28:27;34.47;;;17.85;;
1370;SDS011;14306;49.942;11.570;2023-03-03T00:30:57;34.22;;;16.92;;
1370;SDS011;14306;49.942;11.570;2023-03-03T00:33:28;35.65;;;17.48;;
1370;SDS011;14306;49.942;11.570;2023-03-03T00:36:09;36.47;;;17.38;;
1370;SDS011;14306;49.942;11.570;2023-03-03T00:38:56;37.55;;;18.20;;
1370;SDS011;14306;49.942;11.570;2023-03-03T00:41:39;40.45;;;18.05;;
1370;SDS011;14306;49.942;11.570;2023-03-03T00:44:36;32.60;;;16.30;;
1370;SDS011;14306;49.942;11.570;2023-03-03T00:47:12;39.28;;;17.77;;
1370;SDS011;14306;49.942;11.570;2023-03-03T00:49:51;32.88;;;17.70;;
1370;SDS011;14306;49.942;11.570;2023-03-03T00:52:20;37.78;;;17.20;;
1370;SDS011;14306;49.942;11.570;2023-03-03T00:54:56;32.47;;;17.08;;
1370;SDS011;14306;49.942;11.570;2023-03-03T00:57:24;47.05;;;18.38;;
1370;SDS011;14306;49.942;11.570;2023-03-03T00:59:53;36.85;;;17.10;;
1370;SDS011;14306;49.942;11.570;2023-03-03T01:02:22;31.42;;;17.38;;
1370;SDS011;14306;49.942;11.570;2023-03-03T01:04:52;36.05;;;18.50;;
1370;SDS011;14306;49.942;11.570;2023-03-03T01:07:22;31.55;;;16.25;;
1370;SDS011;14306;49.942;11.570;2023-03-03T01:09:51;33.85;;;16.50;;
1370;SDS011;14306;49.942;11.570;2023-03-03T01:12:22;37.13;;;17.40;;
1370;SDS011;14306;49.942;11.570;2023-03-03T01:14:51;32.28;;;16.25;;
1370;SDS011;14306;49.942;11.570;2023-03-03T01:17:20;32.90;;;17.13;;
1370;SDS011;14306;49.942;11.570;2023-03-03T01:19:49;32.10;;;15.50;;
1370;SDS011;14306;49.942;11.570;2023-03-03T01:22:18;31.92;;;17.27;;
1370;SDS011;14306;49.942;11.570;2023-03-03T01:24:49;27.90;;;16.15;;
1370;SDS011;14306;49.942;11.570;2023-03-03T01:27:18;30.30;;;16.70;;
1370;SDS011;14306;49.942;11.570;2023-03-03T01:29:49;36.10;;;16.20;;
1370;SDS011;14306;49.942;11.570;2023-03-03T01:32:18;33.45;;;18.45;;
1370;SDS011;14306;49.942;11.570;2023-03-03T01:34:48;38.80;;;18.15;;
1370;SDS011;14306;49.942;11.570;2023-03-03T01:37:16;35.28;;;17.02;;
1370;SDS011;14306;49.942;11.570;2023-03-03T01:39:46;35.00;;;17.02;;
1370;SDS011;14306;49.942;11.570;2023-03-03T01:42:16;31.42;;;17.52;;
1370;SDS011;14306;49.942;11.570;2023-03-03T01:44:45;31.58;;;16.63;;
1370;SDS011;14306;49.942;11.570;2023-03-03T01:47:16;38.22;;;18.30;;
1370;SDS011;14306;49.942;11.570;2023-03-03T01:49:48;37.05;;;18.45;;
1370;SDS011;14306;49.942;11.570;2023-03-03T01:52:24;34.30;;;17.00;;
1370;SDS011;14306;49.942;11.570;2023-03-03T01:54:58;29.30;;;17.02;;
1370;SDS011;14306;49.942;11.570;2023-03-03T01:57:30;31.25;;;15.98;;
1370;SDS011;14306;49.942;11.570;2023-03-03T02:00:00;33.00;;;17.15;;
1370;SDS011;14306;49.942;11.570;2023-03-03T02:02:30;41.03;;;20.95;;
1370;SDS011;14306;49.942;11.570;2023-03-03T02:04:59;38.67;;;18.55;;
1370;SDS011;14306;49.942;11.570;2023-03-03T02:07:27;44.03;;;21.05;;
1370;SDS011;14306;49.942;11.570;2023-03-03T02:09:59;43.90;;;19.23;;
1370;SDS011;14306;49.942;11.570;2023-03-03T02:12:33;50.53;;;23.02;;
1370;SDS011;14306;49.942;11.570;2023-03-03T02:15:14;36.45;;;20.08;;
1370;SDS011;14306;49.942;11.570;2023-03-03T02:17:45;49.45;;;21.13;;
1370;SDS011;14306;49.942;11.570;2023-03-03T02:20:15;49.78;;;21.77;;
1370;SDS011;14306;49.942;11.570;2023-03-03T02:22:51;47.00;;;22.63;;
1370;SDS011;14306;49.942;11.570;2023-03-03T02:25:26;47.53;;;22.70;;
1370;SDS011;14306;49.942;11.570;2023-03-03T02:28:02;45.80;;;22.73;;
1370;SDS011;14306;49.942;11.570;2023-03-03T02:30:30;48.15;;;21.88;;
1370;SDS011;14306;49.942;11.570;2023-03-03T02:33:05;48.63;;;21.05;;
1370;SDS011;14306;49.942;11.570;2023-03-03T02:35:35;46.90;;;20.35;;
1370;SDS011;14306;49.942;11.570;2023-03-03T02:38:13;46.38;;;18.52;;
1370;SDS011;14306;49.942;11.570;2023-03-03T02:40:51;48.03;;;21.98;;
1370;SDS011;14306;49.942;11.570;2023-03-03T02:43:27;42.58;;;21.02;;
1370;SDS011;14306;49.942;11.570;2023-03-03T02:46:02;49.10;;;23.02;;
1370;SDS011;14306;49.942;11.570;2023-03-03T02:48:31;56.63;;;21.90;;
1370;SDS011;14306;49.942;11.570;2023-03-03T02:50:59;60.53;;;26.30;;
1370;SDS011;14306;49.942;11.570;2023-03-03T02:53:27;52.67;;;26.02;;
1370;SDS011;14306;49.942;11.570;2023-03-03T02:55:56;68.10;;;28.67;;
1370;SDS011;14306;49.942;11.570;2023-03-03T02:58:24;69.07;;;28.85;;
1370;SDS011;14306;49.942;11.570;2023-03-03T03:00:54;64.43;;;30.02;;
1370;SDS011;14306;49.942;11.570;2023-03-03T03:03:22;65.35;;;28.65;;
1370;SDS011;14306;49.942;11.570;2023-03-03T03:05:50;73.75;;;30.38;;
1370;SDS011;14306;49.942;11.570;2023-03-03T03:08:19;76.43;;;30.50;;
1370;SDS011;14306;49.942;11.570;2023-03-03T03:10:47;67.25;;;27.27;;
1370;SDS011;14306;49.942;11.570;2023-03-03T03:13:15;70.93;;;28.35;;
1370;SDS011;14306;49.942;11.570;2023-03-03T03:15:44;80.22;;;31.58;;
1370;SDS011;14306;49.942;11.570;2023-03-03T03:18:14;72.13;;;30.02;;
1370;SDS011;14306;49.942;11.570;2023-03-03T03:20:43;71.35;;;28.10;;
1370;SDS011;14306;49.942;11.570;2023-03-03T03:23:14;73.95;;;30.35;;
1370;SDS011;14306;49.942;11.570;2023-03-03T03:25:42;64.18;;;28.40;;
1370;SDS011;14306;49.942;11.570;2023-03-03T03:28:12;67.55;;;29.48;;
1370;SDS011;14306;49.942;11.570;2023-03-03T03:30:41;72.63;;;30.50;;
1370;SDS011;14306;49.942;11.570;2023-03-03T03:33:11;72.10;;;29.70;;
1370;SDS011;14306;49.942;11.570;2023-03-03T03:35:41;73.78;;;30.95;;
1370;SDS011;14306;49.942;11.570;2023-03-03T03:38:11;68.05;;;28.35;;
1370;SDS011;14306;49.942;11.570;2023-03-03T03:40:39;63.92;;;28.73;;
1370;SDS011;14306;49.942;11.570;2023-03-03T03:43:08;66.80;;;29.13;;
1370;SDS011;14306;49.942;11.570;2023-03-03T03:45:36;73.07;;;28.17;;
1370;SDS011;14306;49.942;11.570;2023-03-03T03:48:05;63.92;;;27.25;;
1370;SDS011;14306;49.942;11.570;2023-03-03T03:50:33;67.82;;;28.63;;
1370;SDS011;14306;49.942;11.570;2023-03-03T03:53:03;65.28;;;27.25;;
1370;SDS011;14306;49.942;11.570;2023-03-03T03:55:32;62.25;;;29.63;;
1370;SDS011;14306;49.942;11.570;2023-03-03T03:58:01;74.82;;;29.58;;
1370;SDS011;14306;49.942;11.570;2023-03-03T04:00:29;72.57;;;29.35;;
1370;SDS011;14306;49.942;11.570;2023-03-03T04:02:58;70.75;;;29.08;;
1370;SDS011;14306;49.942;11.570;2023-03-03T04:05:26;69.97;;;27.85;;
1370;SDS011;14306;49.942;11.570;2023-03-03T04:07:54;73.45;;;28.20;;
1370;SDS011;14306;49.942;11.570;2023-03-03T04:10:24;66.50;;;29.33;;
1370;SDS011;14306;49.942;11.570;2023-03-03T04:12:52;65.38;;;29.17;;
1370;SDS011;14306;49.942;11.570;2023-03-03T04:15:20;73.60;;;28.75;;
1370;SDS011;14306;49.942;11.570;2023-03-03T04:17:48;72.97;;;27.83;;
1370;SDS011;14306;49.942;11.570;2023-03-03T04:20:17;63.70;;;27.58;;
1370;SDS011;14306;49.942;11.570;2023-03-03T04:22:46;66.30;;;28.83;;
1370;SDS011;14306;49.942;11.570;2023-03-03T04:25:15;64.55;;;27.90;;
1370;SDS011;14306;49.942;11.570;2023-03-03T04:27:45;68.72;;;27.83;;
1370;SDS011;14306;49.942;11.570;2023-03-03T04:30:14;73.15;;;28.42;;
1370;SDS011;14306;49.942;11.570;2023-03-03T04:32:42;67.32;;;28.60;;
1370;SDS011;14306;49.942;11.570;2023-03-03T04:35:11;66.22;;;27.30;;
1370;SDS011;14306;49.942;11.570;2023-03-03T04:37:39;78.47;;;28.50;;
1370;SDS011;14306;49.942;11.570;2023-03-03T04:40:08;73.55;;;30.38;;
1370;SDS011;14306;49.942;11.570;2023-03-03T04:42:37;69.90;;;31.38;;
1370;SDS011;14306;49.942;11.570;2023-03-03T04:45:07;77.85;;;29.65;;
1370;SDS011;14306;49.942;11.570;2023-03-03T04:47:36;68.40;;;28.35;;
1370;SDS011;14306;49.942;11.570;2023-03-03T04:50:06;76.40;;;30.70;;
1370;SDS011;14306;49.942;11.570;2023-03-03T04:52:35;77.32;;;31.30;;
1370;SDS011;14306;49.942;11.570;2023-03-03T04:55:03;69.35;;;31.20;;
1370;SDS011;14306;49.942;11.570;2023-03-03T04:57:35;73.40;;;30.63;;
1370;SDS011;14306;49.942;11.570;2023-03-03T05:00:04;72.50;;;29.70;;
1370;SDS011;14306;49.942;11.570;2023-03-03T05:02:35;80.13;;;32.05;;
1370;SDS011;14306;49.942;11.570;2023-03-03T05:05:03;73.68;;;31.35;;
1370;SDS011;14306;49.942;11.570;2023-03-03T05:07:32;82.05;;;31.25;;
1370;SDS011;14306;49.942;11.570;2023-03-03T05:10:01;80.40;;;30.60;;
1370;SDS011;14306;49.942;11.570;2023-03-03T05:12:29;82.40;;;29.92;;
1370;SDS011;14306;49.942;11.570;2023-03-03T05:14:58;70.75;;;29.52;;
1370;SDS011;14306;49.942;11.570;2023-03-03T05:17:28;83.18;;;32.22;;
1370;SDS011;14306;49.942;11.570;2023-03-03T05:19:57;81.43;;;33.00;;
1370;SDS011;14306;49.942;11.570;2023-03-03T05:22:25;70.60;;;30.58;;
1370;SDS011;14306;49.942;11.570;2023-03-03T05:24:54;65.63;;;31.45;;
1370;SDS011;14306;49.942;11.570;2023-03-03T05:27:23;78.15;;;30.67;;
1370;SDS011;14306;49.942;11.570;2023-03-03T05:29:51;82.53;;;31.77;;
1370;SDS011;14306;49.942;11.570;2023-03-03T05:32:20;81.97;;;34.47;;
1370;SDS011;14306;49.942;11.570;2023-03-03T05:34:49;75.18;;;28.45;;
1370;SDS011;14306;49.942;11.570;2023-03-03T05:37:19;83.03;;;30.15;;
1370;SDS011;14306;49.942;11.570;2023-03-03T05:39:47;75.63;;;32.42;;
1370;SDS011;14306;49.942;11.570;2023-03-03T05:42:15;91.28;;;34.20;;
1370;SDS011;14306;49.942;11.570;2023-03-03T05:44:43;86.93;;;33.42;;
1370;SDS011;14306;49.942;11.570;2023-03-03T05:47:12;71.70;;;30.95;;
1370;SDS011;14306;49.942;11.570;2023-03-03T05:49:40;77.38;;;33.38;;
1370;SDS011;14306;49.942;11.570;2023-03-03T05:52:10;93.97;;;35.88;;
1370;SDS011;14306;49.942;11.570;2023-03-03T05:54:39;79.43;;;32.13;;
1370;SDS011;14306;49.942;11.570;2023-03-03T05:57:07;79.63;;;33.00;;
1370;SDS011;14306;49.942;11.570;2023-03-03T05:59:35;78.00;;;33.55;;
1370;SDS011;14306;49.942;11.570;2023-03-03T06:02:04;76.53;;;32.17;;
1370;SDS011;14306;49.942;11.570;2023-03-03T06:04:33;70.65;;;29.17;;
1370;SDS011;14306;49.942;11.570;2023-03-03T06:07:02;71.70;;;30.17;;
1370;SDS011;14306;49.942;11.570;2023-03-03T06:09:32;69.53;;;28.40;;
1370;SDS011;14306;49.942;11.570;2023-03-03T06:12:00;73.95;;;28.75;;
1370;SDS011;14306;49.942;11.570;2023-03-03T06:14:29;78.68;;;30.73;;
1370;SDS011;14306;49.942;11.570;2023-03-03T06:16:57;75.13;;;27.95;;
1370;SDS011;14306;49.942;11.570;2023-03-03T06:19:26;65.45;;;29.90;;
1370;SDS011;14306;49.942;11.570;2023-03-03T06:21:56;77.55;;;31.98;;
1370;SDS011;14306;49.942;11.570;2023-03-03T06:24:26;72.03;;;31.48;;
1370;SDS011;14306;49.942;11.570;2023-03-03T06:26:59;68.28;;;30.42;;
1370;SDS011;14306;49.942;11.570;2023-03-03T06:29:28;67.18;;;28.90;;
1370;SDS011;14306;49.942;11.570;2023-03-03T06:31:57;57.70;;;26.80;;
1370;SDS011;14306;49.942;11.570;2023-03-03T06:34:26;67.43;;;29.92;;
1370;SDS011;14306;49.942;11.570;2023-03-03T06:36:55;71.72;;;31.60;;
1370;SDS011;14306;49.942;11.570;2023-03-03T06:39:27;64.88;;;28.10;;
1370;SDS011;14306;49.942;11.570;2023-03-03T06:42:00;64.47;;;28.90;;
1370;SDS011;14306;49.942;11.570;2023-03-03T06:44:28;63.63;;;27.67;;
1370;SDS011;14306;49.942;11.570;2023-03-03T06:46:57;70.90;;;26.52;;
1370;SDS011;14306;49.942;11.570;2023-03-03T06:49:25;69.20;;;28.20;;
1370;SDS011;14306;49.942;11.570;2023-03-03T06:51:54;57.80;;;26.97;;
1370;SDS011;14306;49.942;11.570;2023-03-03T06:54:26;64.83;;;26.43;;
1370;SDS011;14306;49.942;11.570;2023-03-03T06:59:41;42.27;;;22.77;;
1370;SDS011;14306;49.942;11.570;2023-03-03T07:02:12;48.70;;;23.50;;
1370;SDS011;14306;49.942;11.570;2023-03-03T07:04:43;44.90;;;20.80;;
1370;SDS011;14306;49.942;11.570;2023-03-03T07:07:15;43.37;;;21.27;;
1370;SDS011;14306;49.942;11.570;2023-03-03T07:09:46;37.83;;;20.23;;
1370;SDS011;14306;49.942;11.570;2023-03-03T07:12:18;37.03;;;21.40;;
1370;SDS011;14306;49.942;11.570;2023-03-03T07:14:51;42.47;;;21.60;;
1370;SDS011;14306;49.942;11.570;2023-03-03T07:17:25;36.37;;;18.43;;
1370;SDS011;14306;49.942;11.570;2023-03-03T07:19:53;40.03;;;17.90;;
1370;SDS011;14306;49.942;11.570;2023-03-03T07:22:23;37.67;;;18.80;;
1370;SDS011;14306;49.942;11.570;2023-03-03T07:24:56;32.40;;;17.67;;
1370;SDS011;14306;49.942;11.570;2023-03-03T07:27:29;29.37;;;17.50;;
1370;SDS011;14306;49.942;11.570;2023-03-03T07:30:08;30.90;;;17.70;;
1370;SDS011;14306;49.942;11.570;2023-03-03T07:32:49;32.90;;;18.10;;
1370;SDS011;14306;49.942;11.570;2023-03-03T07:35:28;29.00;;;15.47;;
1370;SDS011;14306;49.942;11.570;2023-03-03T07:38:16;32.47;;;16.30;;
1370;SDS011;14306;49.942;11.570;2023-03-03T07:40:57;32.80;;;17.23;;
1370;SDS011;14306;49.942;11.570;2023-03-03T07:43:33;33.13;;;17.57;;
1370;SDS011;14306;49.942;11.570;2023-03-03T07:46:23;34.90;;;16.93;;
1370;SDS011;14306;49.942;11.570;2023-03-03T07:48:59;32.70;;;17.40;;
1370;SDS011;14306;49.942;11.570;2023-03-03T07:51:34;28.47;;;16.50;;
1370;SDS011;14306;49.942;11.570;2023-03-03T07:54:16;33.37;;;17.03;;
1370;SDS011;14306;49.942;11.570;2023-03-03T07:56:58;27.37;;;15.87;;
1370;SDS011;14306;49.942;11.570;2023-03-03T07:59:35;29.70;;;16.40;;
1370;SDS011;14306;49.942;11.570;2023-03-03T08:02:14;30.83;;;16.50;;
1370;SDS011;14306;49.942;11.570;2023-03-03T08:05:23;32.13;;;15.53;;
1370;SDS011;14306;49.942;11.570;2023-03-03T08:08:09;30.90;;;16.67;;
1370;SDS011;14306;49.942;11.570;2023-03-03T08:10:46;30.27;;;15.80;;
1370;SDS011;14306;49.942;11.570;2023-03-03T08:13:16;29.60;;;16.40;;
1370;SDS011;14306;49.942;11.570;2023-03-03T08:15:48;35.97;;;16.90;;
1370;SDS011;14306;49.942;11.570;2023-03-03T08:18:24;32.43;;;16.47;;
1370;SDS011;14306;49.942;11.570;2023-03-03T08:20:58;30.70;;;15.50;;
1370;SDS011;14306;49.942;11.570;2023-03-03T08:23:30;30.13;;;16.00;;
1370;SDS011;14306;49.942;11.570;2023-03-03T08:25:59;32.90;;;15.27;;
1370;SDS011;14306;49.942;11.570;2023-03-03T08:28:28;29.77;;;16.00;;
1370;SDS011;14306;49.942;11.570;2023-03-03T08:30:57;28.40;;;15.53;;
1370;SDS011;14306;49.942;11.570;2023-03-03T08:33:46;28.77;;;16.00;;
1370;SDS011;14306;49.942;11.570;2023-03-03T08:36:15;31.33;;;16.77;;
1370;SDS011;14306;49.942;11.570;2023-03-03T08:38:44;26.13;;;15.10;;
1370;SDS011;14306;49.942;11.570;2023-03-03T08:41:14;26.50;;;16.03;;
1370;SDS011;14306;49.942;11.570;2023-03-03T08:43:42;37.30;;;17.00;;
1370;SDS011;14306;49.942;11.570;2023-03-03T08:46:12;29.37;;;15.50;;
1370;SDS011;14306;49.942;11.570;2023-03-03T08:48:40;29.50;;;16.47;;
1370;SDS011;14306;49.942;11.570;2023-03-03T08:51:10;28.37;;;16.00;;
1370;SDS011;14306;49.942;11.570;2023-03-03T08:53:39;25.10;;;15.33;;
1370;SDS011;14306;49.942;11.570;2023-03-03T08:56:08;30.20;;;14.10;;
1370;SDS011;14306;49.942;11.570;2023-03-03T08:58:37;27.10;;;14.20;;
1370;SDS011;14306;49.942;11.570;2023-03-03T09:01:25;27.90;;;14.20;;
1370;SDS011;14306;49.942;11.570;2023-03-03T09:03:53;32.23;;;14.87;;
1370;SDS011;14306;49.942;11.570;2023-03-03T09:06:24;29.53;;;15.37;;
1370;SDS011;14306;49.942;11.570;2023-03-03T09:08:53;27.20;;;14.63;;
1370;SDS011;14306;49.942;11.570;2023-03-03T09:11:23;29.00;;;15.70;;
1370;SDS011;14306;49.942;11.570;2023-03-03T09:13:56;32.27;;;15.40;;
1370;SDS011;14306;49.942;11.570;2023-03-03T09:16:30;33.40;;;16.27;;
1370;SDS011;14306;49.942;11.570;2023-03-03T09:19:15;25.53;;;15.83;;
1370;SDS011;14306;49.942;11.570;2023-03-03T09:21:50;32.27;;;15.50;;
1370;SDS011;14306;49.942;11.570;2023-03-03T09:24:24;34.33;;;17.63;;
1370;SDS011;14306;49.942;11.570;2023-03-03T09:26:54;29.53;;;16.03;;
1370;SDS011;14306;49.942;11.570;2023-03-03T09:29:26;26.07;;;14.40;;
1370;SDS011;14306;49.942;11.570;2023-03-03T09:31:56;25.93;;;15.77;;
1370;SDS011;14306;49.942;11.570;2023-03-03T09:34:29;26.63;;;15.30;;
1370;SDS011;14306;49.942;11.570;2023-03-03T09:37:19;28.67;;;15.30;;
1370;SDS011;14306;49.942;11.570;2023-03-03T09:39:50;30.23;;;16.40;;
1370;SDS011;14306;49.942;11.570;2023-03-03T09:45:27;32.23;;;17.27;;
1370;SDS011;14306;49.942;11.570;2023-03-03T09:48:16;29.70;;;15.10;;
1370;SDS011;14306;49.942;11.570;2023-03-03T09:51:01;35.90;;;16.97;;
1370;SDS011;14306;49.942;11.570;2023-03-03T09:53:43;27.63;;;14.07;;
1370;SDS011;14306;49.942;11.570;2023-03-03T09:56:23;27.00;;;15.80;;
1370;SDS011;14306;49.942;11.570;2023-03-03T09:59:00;49.63;;;19.23;;
1370;SDS011;14306;49.942;11.570;2023-03-03T10:01:46;26.47;;;15.60;;
1370;SDS011;14306;49.942;11.570;2023-03-03T10:04:24;33.50;;;15.60;;
1370;SDS011;14306;49.942;11.570;2023-03-03T10:10:06;31.63;;;15.63;;
1370;SDS011;14306;49.942;11.570;2023-03-03T10:13:06;30.50;;;15.40;;
1370;SDS011;14306;49.942;11.570;2023-03-03T10:15:46;35.10;;;15.77;;
1370;SDS011;14306;49.942;11.570;2023-03-03T10:18:27;31.03;;;14.60;;
1370;SDS011;14306;49.942;11.570;2023-03-03T10:21:01;30.43;;;15.00;;
1370;SDS011;14306;49.942;11.570;2023-03-03T10:23:42;27.93;;;14.23;;
1370;SDS011;14306;49.942;11.570;2023-03-03T10:29:39;33.10;;;15.00;;
1370;SDS011;14306;49.942;11.570;2023-03-03T10:32:24;28.23;;;14.50;;
1370;SDS011;14306;49.942;11.570;2023-03-03T10:35:18;31.20;;;14.90;;
1370;SDS011;14306;49.942;11.570;2023-03-03T10:38:06;41.67;;;16.83;;
1370;SDS011;14306;49.942;11.570;2023-03-03T10:40:45;44.10;;;15.83;;
1370;SDS011;14306;49.942;11.570;2023-03-03T10:43:27;26.33;;;14.17;;
1370;SDS011;14306;49.942;11.570;2023-03-03T10:49:26;22.27;;;12.93;;
1370;SDS011;14306;49.942;11.570;2023-03-03T10:52:10;27.10;;;13.03;;
1370;SDS011;14306;49.942;11.570;2023-03-03T10:54:53;31.27;;;13.47;;
1370;SDS011;14306;49.942;11.570;2023-03-03T10:57:43;24.37;;;12.70;;
1370;SDS011;14306;49.942;11.570;2023-03-03T11:00:22;24.93;;;11.67;;
1370;SDS011;14306;49.942;11.570;2023-03-03T11:03:06;25.10;;;12.00;;
1370;SDS011;14306;49.942;11.570;2023-03-03T11:05:56;22.33;;;11.37;;
1370;SDS011;14306;49.942;11.570;2023-03-03T11:08:29;24.83;;;13.20;;
1370;SDS011;14306;49.942;11.570;2023-03-03T11:11:05;28.93;;;13.70;;
1370;SDS011;14306;49.942;11.570;2023-03-03T11:13:44;23.67;;;11.60;;
1370;SDS011;14306;49.942;11.570;2023-03-03T11:16:36;25.73;;;12.87;;
1370;SDS011;14306;49.942;11.570;2023-03-03T11:19:27;22.60;;;11.30;;
1370;SDS011;14306;49.942;11.570;2023-03-03T11:22:19;27.50;;;12.10;;
1370;SDS011;14306;49.942;11.570;2023-03-03T11:25:02;20.27;;;10.57;;
1370;SDS011;14306;49.942;11.570;2023-03-03T11:27:49;23.20;;;11.80;;
1370;SDS011;14306;49.942;11.570;2023-03-03T11:30:31;25.63;;;12.17;;
1370;SDS011;14306;49.942;11.570;2023-03-03T11:33:11;25.40;;;13.27;;
1370;SDS011;14306;49.942;11.570;2023-03-03T11:35:46;26.70;;;12.63;;
1370;SDS011;14306;49.942;11.570;2023-03-03T11:38:23;23.20;;;11.97;;
1370;SDS011;14306;49.942;11.570;2023-03-03T11:41:05;22.50;;;11.20;;
1370;SDS011;14306;49.942;11.570;2023-03-03T11:43:41;25.27;;;12.47;;
1370;SDS011;14306;49.942;11.570;2023-03-03T11:46:15;19.30;;;11.77;;
1370;SDS011;14306;49.942;11.570;2023-03-03T11:48:56;23.83;;;11.90;;
1370;SDS011;14306;49.942;11.570;2023-03-03T11:51:31;22.63;;;10.33;;
1370;SDS011;14306;49.942;11.570;2023-03-03T11:54:08;23.57;;;12.23;;
1370;SDS011;14306;49.942;11.570;2023-03-03T11:56:43;28.30;;;9.87;;
1370;SDS011;14306;49.942;11.570;2023-03-03T12:02:41;27.37;;;11.60;;
1370;SDS011;14306;49.942;11.570;2023-03-03T12:05:44;18.00;;;9.83;;
1370;SDS011;14306;49.942;11.570;2023-03-03T12:11:26;25.90;;;11.43;;
1370;SDS011;14306;49.942;11.570;2023-03-03T12:13:59;19.93;;;10.40;;
1370;SDS011;14306;49.942;11.570;2023-03-03T12:16:39;21.83;;;10.33;;
1370;SDS011;14306;49.942;11.570;2023-03-03T12:19:20;17.77;;;9.70;;
1370;SDS011;14306;49.942;11.570;2023-03-03T12:22:01;20.87;;;10.40;;
1370;SDS011;14306;49.942;11.570;2023-03-03T12:24:58;30.23;;;11.07;;
1370;SDS011;14306;49.942;11.570;2023-03-03T12:27:37;23.30;;;9.90;;
1370;SDS011;14306;49.942;11.570;2023-03-03T12:30:15;20.13;;;10.50;;
1370;SDS011;14306;49.942;11.570;2023-03-03T12:32:59;21.27;;;10.00;;
1370;SDS011;14306;49.942;11.570;2023-03-03T12:35:41;20.40;;;9.90;;
1370;SDS011;14306;49.942;11.570;2023-03-03T12:38:20;15.10;;;8.67;;
1370;SDS011;14306;49.942;11.570;2023-03-03T12:41:02;23.10;;;9.60;;
1370;SDS011;14306;49.942;11.570;2023-03-03T12:43:43;26.77;;;9.90;;
1370;SDS011;14306;49.942;11.570;2023-03-03T12:46:24;23.03;;;10.23;;
1370;SDS011;14306;49.942;11.570;2023-03-03T12:49:01;19.00;;;10.10;;
1370;SDS011;14306;49.942;11.570;2023-03-03T12:51:36;19.20;;;9.17;;
1370;SDS011;14306;49.942;11.570;2023-03-03T12:54:20;20.07;;;10.90;;
1370;SDS011;14306;49.942;11.570;2023-03-03T12:57:14;16.60;;;9.10;;
1370;SDS011;14306;49.942;11.570;2023-03-03T12:59:51;22.07;;;9.73;;
1370;SDS011;14306;49.942;11.570;2023-03-03T13:02:35;25.53;;;11.87;;
1370;SDS011;14306;49.942;11.570;2023-03-03T13:05:22;27.67;;;9.10;;
1370;SDS011;14306;49.942;11.570;2023-03-03T13:08:07;20.67;;;8.77;;
1370;SDS011;14306;49.942;11.570;2023-03-03T13:11:02;20.73;;;9.57;;
1370;SDS011;14306;49.942;11.570;2023-03-03T13:13:50;20.47;;;8.17;;
1370;SDS011;14306;49.942;11.570;2023-03-03T13:16:25;20.40;;;10.27;;
1370;SDS011;14306;49.942;11.570;2023-03-03T13:19:07;20.63;;;10.10;;
1370;SDS011;14306;49.942;11.570;2023-03-03T13:21:42;18.63;;;10.17;;
1370;SDS011;14306;49.942;11.570;2023-03-03T13:24:17;21.87;;;8.73;;
1370;SDS011;14306;49.942;11.570;2023-03-03T13:26:52;19.10;;;9.00;;
1370;SDS011;14306;49.942;11.570;2023-03-03T13:29:26;17.70;;;8.73;;
1370;SDS011;14306;49.942;11.570;2023-03-03T13:31:58;20.03;;;9.13;;
1370;SDS011;14306;49.942;11.570;2023-03-03T13:34:35;17.60;;;8.90;;
1370;SDS011;14306;49.942;11.570;2023-03-03T13:37:11;22.93;;;10.43;;
1370;SDS011;14306;49.942;11.570;2023-03-03T13:39:50;18.83;;;8.63;;
1370;SDS011;14306;49.942;11.570;2023-03-03T13:42:27;19.27;;;9.30;;
1370;SDS011;14306;49.942;11.570;2023-03-03T13:45:06;17.30;;;8.47;;
1370;SDS011;14306;49.942;11.570;2023-03-03T13:47:45;17.27;;;8.73;;
1370;SDS011;14306;49.942;11.570;2023-03-03T13:50:21;19.70;;;9.90;;
1370;SDS011;14306;49.942;11.570;2023-03-03T13:52:59;19.20;;;8.93;;
1370;SDS011;14306;49.942;11.570;2023-03-03T13:55:54;21.73;;;9.13;;
1370;SDS011;14306;49.942;11.570;2023-03-03T13:58:30;20.70;;;8.70;;
1370;SDS011;14306;49.942;11.570;2023-03-03T14:01:11;19.10;;;9.60;;
1370;SDS011;14306;49.942;11.570;2023-03-03T14:03:50;16.90;;;9.20;;
1370;SDS011;14306;49.942;11.570;2023-03-03T14:06:27;20.33;;;10.03;;
1370;SDS011;14306;49.942;11.570;2023-03-03T14:09:02;15.93;;;8.33;;
1370;SDS011;14306;49.942;11.570;2023-03-03T14:11:43;17.07;;;7.80;;
1370;SDS011;14306;49.942;11.570;2023-03-03T14:14:20;18.70;;;9.63;;
1370;SDS011;14306;49.942;11.570;2023-03-03T14:17:01;16.93;;;7.67;;
1370;SDS011;14306;49.942;11.570;2023-03-03T14:19:37;25.60;;;10.60;;
1370;SDS011;14306;49.942;11.570;2023-03-03T14:22:17;20.73;;;9.40;;
1370;SDS011;14306;49.942;11.570;2023-03-03T14:24:55;21.10;;;9.77;;
1370;SDS011;14306;49.942;11.570;2023-03-03T14:27:33;22.93;;;10.07;;
1370;SDS011;14306;49.942;11.570;2023-03-03T14:33:13;20.53;;;11.00;;
1370;SDS011;14306;49.942;11.570;2023-03-03T14:35:51;17.90;;;9.83;;
1370;SDS011;14306;49.942;11.570;2023-03-03T14:38:36;18.70;;;10.00;;
1370;SDS011;14306;49.942;11.570;2023-03-03T14:41:21;20.93;;;9.90;;
1370;SDS011;14306;49.942;11.570;2023-03-03T14:49:57;25.20;;;9.97;;
1370;SDS011;14306;49.942;11.570;2023-03-03T14:52:26;16.73;;;9.30;;
1370;SDS011;14306;49.942;11.570;2023-03-03T14:54:57;18.13;;;9.13;;
1370;SDS011;14306;49.942;11.570;2023-03-03T14:57:37;17.40;;;9.93;;
1370;SDS011;14306;49.942;11.570;2023-03-03T15:00:29;18.17;;;9.97;;
1370;SDS011;14306;49.942;11.570;2023-03-03T15:03:04;20.30;;;9.20;;
1370;SDS011;14306;49.942;11.570;2023-03-03T15:05:49;21.60;;;8.87;;
1370;SDS011;14306;49.942;11.570;2023-03-03T15:08:22;19.10;;;9.77;;
1370;SDS011;14306;49.942;11.570;2023-03-03T15:10:57;17.97;;;8.23;;
1370;SDS011;14306;49.942;11.570;2023-03-03T15:13:40;19.20;;;8.37;;
1370;SDS011;14306;49.942;11.570;2023-03-03T15:16:10;16.03;;;7.33;;
1370;SDS011;14306;49.942;11.570;2023-03-03T15:21:45;14.90;;;8.63;;
1370;SDS011;14306;49.942;11.570;2023-03-03T15:24:23;22.37;;;9.57;;
1370;SDS011;14306;49.942;11.570;2023-03-03T15:26:59;18.93;;;8.47;;
1370;SDS011;14306;49.942;11.570;2023-03-03T15:29:34;16.37;;;9.43;;
1370;SDS011;14306;49.942;11.570;2023-03-03T15:32:06;26.97;;;10.57;;
1370;SDS011;14306;49.942;11.570;2023-03-03T15:34:43;24.20;;;9.43;;
1370;SDS011;14306;49.942;11.570;2023-03-03T15:37:30;21.27;;;10.00;;
1370;SDS011;14306;49.942;11.570;2023-03-03T15:40:10;24.03;;;9.87;;